Time;durP1;ratioP1;P1;durP2;ratioP2;P2;SDS_P1;SDS_P2;PMS_P1;PMS_P2;Temp;Humidity;BMP_temperature;BMP_pressure;BME280_temperature;BME280_humidity;BME280_pressure;Samples;Min_cycle;Max_cycle;Signal;HPM_P1;HPM_P2
2023/06/28 00:00:54;;;;;;;16.55;9.40;;;;;;;;;;4971069;28;20073;-88
2023/06/28 00:03:19;;;;;;;20.90;11.83;;;;;;;21.25;43.77;93477.94;5000899;28;20054;-88
2023/06/28 00:05:46;;;;;;;22.50;10.88;;;;;;;21.24;43.99;93485.44;4990858;28;20291;-88
2023/06/28 00:08:11;;;;;;;19.40;10.70;;;;;;;21.25;43.82;93486.19;4972955;28;20057;-88
2023/06/28 00:10:37;;;;;;;19.33;9.68;;;;;;;21.23;43.61;93489.47;4972760;28;20042;-88
2023/06/28 00:13:02;;;;;;;20.92;10.43;;;;;;;21.25;44.08;93491.69;5005865;28;20042;-88
2023/06/28 00:15:28;;;;;;;19.13;10.52;;;;;;;21.23;43.59;93492.22;4970156;28;20038;-88
2023/06/28 00:17:53;;;;;;;19.88;9.75;;;;;;;21.24;43.67;93499.19;4981295;28;20045;-89
2023/06/28 00:20:19;;;;;;;19.50;9.55;;;;;;;21.23;43.78;93489.47;4989747;28;20046;-89
2023/06/28 00:22:44;;;;;;;18.08;9.30;;;;;;;21.22;43.88;93498.97;4991887;28;20076;-88
2023/06/28 00:25:09;;;;;;;19.15;9.43;;;;;;;21.25;44.10;93494.44;5003672;28;20112;-88
2023/06/28 00:27:35;;;;;;;16.08;8.95;;;;;;;21.24;43.91;93488.19;4986736;28;20043;-88
2023/06/28 00:30:00;;;;;;;18.23;9.35;;;;;;;21.23;43.87;93497.72;4970149;28;20069;-89
2023/06/28 00:32:29;;;;;;;18.15;9.48;;;;;;;21.23;44.00;93502.47;4975679;28;20034;-89
2023/06/28 00:34:54;;;;;;;17.98;9.45;;;;;;;21.23;43.97;93508.72;4990616;28;20458;-88
2023/06/28 00:37:20;;;;;;;21.55;10.55;;;;;;;21.24;43.82;93518.44;4988831;28;20073;-89
2023/06/28 00:39:45;;;;;;;16.45;9.45;;;;;;;21.24;43.93;93517.69;4985578;28;20093;-89
2023/06/28 00:42:10;;;;;;;18.00;8.70;;;;;;;21.24;44.00;93517.69;4968565;28;20045;-88
2023/06/28 00:44:36;;;;;;;16.48;8.95;;;;;;;21.23;44.29;93535.47;4990196;28;20045;-89
2023/06/28 00:47:02;;;;;;;15.05;8.48;;;;;;;21.24;44.40;93537.69;4987611;28;20033;-88
2023/06/28 00:49:30;;;;;;;15.52;8.50;;;;;;;21.24;44.17;93542.44;4989487;28;20389;-88
2023/06/28 00:51:56;;;;;;;17.85;8.88;;;;;;;21.21;44.06;93538.78;4973785;28;20511;-87
2023/06/28 00:54:22;;;;;;;13.93;7.88;;;;;;;21.24;44.63;93550.69;5003855;28;20093;-88
2023/06/28 00:56:48;;;;;;;19.33;9.20;;;;;;;21.24;44.46;93542.44;4994429;28;20042;-88
2023/06/28 00:59:14;;;;;;;16.05;8.98;;;;;;;21.22;44.47;93542.97;5021139;28;20104;-88
2023/06/28 01:01:40;;;;;;;16.42;8.25;;;;;;;21.23;44.28;93551.97;4987762;28;20049;-87
2023/06/28 01:04:06;;;;;;;17.30;8.75;;;;;;;21.22;44.51;93547.75;4990951;28;20041;-87
2023/06/28 01:06:35;;;;;;;17.15;8.70;;;;;;;21.23;44.61;93551.97;4973840;28;20092;-88
2023/06/28 01:09:01;;;;;;;14.35;8.32;;;;;;;21.20;44.57;93557.28;4987875;28;20068;-87
2023/06/28 01:11:26;;;;;;;16.30;8.65;;;;;;;21.21;44.25;93552.50;4972677;28;20504;-88
2023/06/28 01:13:51;;;;;;;15.98;8.30;;;;;;;21.20;44.76;93560.03;4989011;28;20050;-88
2023/06/28 01:16:17;;;;;;;13.45;7.38;;;;;;;21.22;44.72;93561.50;5000350;28;20037;-88
2023/06/28 01:18:42;;;;;;;14.82;7.47;;;;;;;21.20;44.66;93560.03;4993154;28;20435;-88
2023/06/28 01:21:09;;;;;;;12.75;6.97;;;;;;;21.20;44.83;93573.03;4988311;28;20507;-88
2023/06/28 01:23:35;;;;;;;12.80;7.55;;;;;;;21.17;44.46;93566.53;4997411;28;20095;-88
2023/06/28 01:26:02;;;;;;;11.35;6.90;;;;;;;21.19;44.45;93571.50;4986439;28;20432;-87
2023/06/28 01:28:31;;;;;;;12.35;7.05;;;;;;;21.18;44.83;93578.28;4968851;28;20069;-88
2023/06/28 01:30:57;;;;;;;14.45;7.40;;;;;;;21.22;44.76;93567.72;4988058;28;20049;-87
2023/06/28 01:33:22;;;;;;;14.77;6.90;;;;;;;21.20;44.70;93570.28;4988468;28;20042;-88
2023/06/28 01:35:47;;;;;;;12.68;7.35;;;;;;;21.19;45.40;93569.50;4986036;28;20475;-88
2023/06/28 01:38:13;;;;;;;14.63;7.38;;;;;;;21.14;44.63;93559.34;4974722;28;20042;-87
2023/06/28 01:40:39;;;;;;;12.77;6.88;;;;;;;21.18;45.10;93561.78;4986420;28;20047;-88
2023/06/28 01:43:06;;;;;;;13.73;6.85;;;;;;;21.17;44.94;93558.28;4968405;28;20409;-88
2023/06/28 01:45:32;;;;;;;12.20;6.60;;;;;;;21.15;44.98;93571.81;4972622;28;20109;-88
2023/06/28 01:47:57;;;;;;;12.43;6.82;;;;;;;21.18;45.22;93567.28;4992584;28;20045;-88
2023/06/28 01:50:23;;;;;;;11.07;7.13;;;;;;;21.17;45.18;93561.03;4992346;28;20026;-88
2023/06/28 01:52:48;;;;;;;13.05;6.43;;;;;;;21.13;45.12;93549.59;5007028;28;20068;-88
2023/06/28 01:55:14;;;;;;;13.90;6.63;;;;;;;21.13;45.16;93554.38;4995558;28;20045;-88
2023/06/28 01:57:39;;;;;;;11.43;6.85;;;;;;;21.15;45.09;93562.81;4993061;28;20508;-88
2023/06/28 02:00:08;;;;;;;11.40;6.90;;;;;;;21.15;45.14;93551.84;5007751;28;20030;-88
2023/06/28 02:02:34;;;;;;;10.93;6.03;;;;;;;21.15;45.21;93557.34;4994982;28;20042;-87
2023/06/28 02:04:59;;;;;;;15.50;6.72;;;;;;;21.16;45.20;93558.81;4993635;28;20100;-87
2023/06/28 02:07:25;;;;;;;11.15;6.50;;;;;;;21.15;45.29;93551.84;4975410;28;20076;-87
2023/06/28 02:09:50;;;;;;;10.40;6.18;;;;;;;21.14;45.35;93547.59;4991843;28;20502;-88
2023/06/28 02:12:15;;;;;;;9.93;5.45;;;;;;;21.14;45.29;93548.34;4991734;28;20393;-88
2023/06/28 02:14:41;;;;;;;12.15;6.75;;;;;;;21.14;45.54;93548.34;4977637;28;20049;-88
2023/06/28 02:17:13;;;;;;;11.18;5.70;;;;;;;21.14;45.30;93553.84;4970466;28;20034;-88
2023/06/28 02:19:39;;;;;;;9.60;5.88;;;;;;;21.13;45.41;93552.34;4987055;28;20045;-88
2023/06/28 02:22:05;;;;;;;11.38;6.10;;;;;;;21.15;45.35;93549.09;4988257;28;20069;-88
2023/06/28 02:24:30;;;;;;;8.77;5.20;;;;;;;21.14;45.49;93545.59;5006317;28;20714;-88
2023/06/28 02:26:55;;;;;;;9.90;5.40;;;;;;;21.15;45.65;93535.34;5008346;28;20313;-88
2023/06/28 02:29:21;;;;;;;10.77;5.68;;;;;;;21.16;45.73;93543.06;5007290;28;20042;-88
2023/06/28 02:31:46;;;;;;;10.57;5.32;;;;;;;21.15;45.57;93544.31;5007280;28;20042;-88
2023/06/28 02:34:12;;;;;;;10.90;5.82;;;;;;;21.13;45.71;93541.34;4988346;28;20100;-87
2023/06/28 02:36:37;;;;;;;9.50;5.15;;;;;;;21.13;45.59;93540.63;5008769;28;20046;-88
2023/06/28 02:39:03;;;;;;;11.52;5.95;;;;;;;21.11;45.39;93538.38;5005877;28;20408;-88
2023/06/28 02:41:28;;;;;;;10.20;5.40;;;;;;;21.13;45.35;93540.63;4990395;28;20310;-88
2023/06/28 02:43:53;;;;;;;12.27;5.43;;;;;;;21.13;45.66;93541.34;4973497;28;20046;-88
2023/06/28 02:46:19;;;;;;;10.02;5.60;;;;;;;21.12;45.46;93531.63;4972701;28;20056;-87
2023/06/28 02:48:44;;;;;;;10.95;5.75;;;;;;;21.11;45.99;93538.38;4970881;28;20078;-88
2023/06/28 02:51:10;;;;;;;9.05;5.40;;;;;;;21.12;45.40;93539.13;4946624;28;20070;-87
2023/06/28 02:53:35;;;;;;;11.32;5.55;;;;;;;21.12;45.47;93536.38;4972187;28;20049;-88
2023/06/28 02:56:00;;;;;;;11.57;5.70;;;;;;;21.12;45.43;93528.13;4984196;28;20042;-87
2023/06/28 02:58:26;;;;;;;8.55;4.88;;;;;;;21.11;45.63;93523.91;4989250;28;20046;-88
2023/06/28 03:00:51;;;;;;;12.75;5.07;;;;;;;21.12;45.51;93531.63;4954789;28;20042;-88
2023/06/28 03:03:17;;;;;;;11.52;5.57;;;;;;;21.13;45.52;93533.13;4968434;28;20046;-88
2023/06/28 03:05:42;;;;;;;9.82;5.78;;;;;;;21.10;45.45;93519.69;4988418;28;20617;-88
2023/06/28 03:08:08;;;;;;;9.55;5.55;;;;;;;21.10;45.46;93527.91;4968288;28;20035;-88
2023/06/28 03:10:33;;;;;;;8.95;4.85;;;;;;;21.12;45.93;93526.13;4987993;28;20064;-88
2023/06/28 03:12:58;;;;;;;8.82;4.53;;;;;;;21.08;45.87;93528.44;4987974;28;20570;-88
2023/06/28 03:15:24;;;;;;;7.05;4.38;;;;;;;21.13;45.73;93521.38;4988264;28;20046;-88
2023/06/28 03:17:50;;;;;;;9.05;5.03;;;;;;;21.12;45.62;93523.38;5006692;28;20042;-88
2023/06/28 03:20:15;;;;;;;8.15;5.38;;;;;;;21.12;45.47;93526.13;4990319;28;20093;-88
2023/06/28 03:22:41;;;;;;;8.52;4.78;;;;;;;21.11;45.74;93521.16;4991767;28;20045;-88
2023/06/28 03:25:07;;;;;;;24.65;5.70;;;;;;;21.10;45.82;93511.44;4989756;28;20050;-87
2023/06/28 03:27:32;;;;;;;11.32;5.93;;;;;;;21.13;45.60;93504.88;4986598;28;20380;-86
2023/06/28 03:29:58;;;;;;;12.13;5.28;;;;;;;21.24;46.05;93506.72;4972251;28;20167;-84
2023/06/28 03:32:23;;;;;;;14.80;9.18;;;;;;;21.30;45.90;93502.59;5023592;28;20472;-87
2023/06/28 03:34:48;;;;;;;20.40;14.70;;;;;;;21.25;45.44;93502.69;4988014;28;20097;-88
2023/06/28 03:37:16;;;;;;;12.40;7.50;;;;;;;21.28;45.53;93494.13;4989918;28;20384;-86
2023/06/28 03:39:42;;;;;;;12.90;6.25;;;;;;;21.25;45.38;93494.44;4988018;28;20064;-87
2023/06/28 03:42:07;;;;;;;18.65;11.23;;;;;;;21.30;45.66;93488.84;5006628;28;20111;-86
2023/06/28 03:44:35;;;;;;;7.38;4.47;;;;;;;21.29;45.20;93484.63;5004959;28;20305;-90
2023/06/28 03:47:01;;;;;;;36.15;25.13;;;;;;;21.29;45.65;93481.13;4974768;28;20515;-89
2023/06/28 03:49:26;;;;;;;16.17;11.95;;;;;;;21.26;45.21;93484.94;4988482;28;20061;-88
2023/06/28 03:51:52;;;;;;;21.25;12.68;;;;;;;21.25;45.04;93472.44;5022519;28;20065;-90
2023/06/28 03:54:17;;;;;;;21.45;8.75;;;;;;;21.23;45.01;93470.22;4994016;28;20042;-91
2023/06/28 03:56:42;;;;;;;10.05;5.20;;;;;;;20.90;45.67;93468.78;4990307;28;20050;-91
2023/06/28 03:59:08;;;;;;;61.17;33.05;;;;;;;20.74;46.29;93462.31;4974086;28;20042;-89
2023/06/28 04:01:35;;;;;;;15.82;7.90;;;;;;;20.75;46.07;93465.81;5006435;28;20038;-91
2023/06/28 04:04:00;;;;;;;9.77;6.20;;;;;;;20.55;46.76;93480.13;4978021;28;20046;-90
2023/06/28 04:06:27;;;;;;;16.75;6.13;;;;;;;20.30;47.13;93480.22;4989591;28;20052;-91
2023/06/28 04:08:52;;;;;;;22.77;8.82;;;;;;;19.98;48.04;93493.88;4978044;28;20064;-90
2023/06/28 04:11:18;;;;;;;47.22;26.50;;;;;;;19.63;48.83;93500.31;4990857;28;20034;-90
2023/06/28 04:13:43;;;;;;;39.05;18.48;;;;;;;19.61;48.96;93493.84;4985740;28;20263;-91
2023/06/28 04:16:09;;;;;;;32.72;16.25;;;;;;;19.33;49.40;93511.31;4987813;28;20038;-89
2023/06/28 04:18:34;;;;;;;34.25;17.63;;;;;;;19.34;49.66;93521.03;4974248;28;20069;-89
2023/06/28 04:21:00;;;;;;;37.72;15.32;;;;;;;19.21;50.07;93523.66;4988594;28;20176;-89
2023/06/28 04:23:25;;;;;;;26.90;14.10;;;;;;;19.18;50.17;93525.41;5018407;28;20108;-89
2023/06/28 04:25:52;;;;;;;30.95;11.70;;;;;;;19.06;50.22;93534.97;4974874;28;20053;-88
2023/06/28 04:28:17;;;;;;;24.27;9.65;;;;;;;19.17;50.33;93539.63;4987974;28;20499;-89
2023/06/28 04:30:43;;;;;;;30.25;8.60;;;;;;;19.13;50.28;93548.13;4990693;28;20042;-90
2023/06/28 04:33:09;;;;;;;27.33;9.32;;;;;;;19.08;50.73;93553.66;4987187;28;20038;-88
2023/06/28 04:35:35;;;;;;;27.38;9.98;;;;;;;18.89;51.40;93561.03;4989109;28;20073;-89
2023/06/28 04:38:03;;;;;;;24.83;10.15;;;;;;;18.95;51.19;93570.72;4995945;28;20503;-89
2023/06/28 04:40:31;;;;;;;22.10;8.60;;;;;;;18.87;51.68;93569.03;4974215;28;20168;-89
2023/06/28 04:43:00;;;;;;;37.85;16.50;;;;;;;18.99;51.42;93564.94;4969225;28;20069;-90
2023/06/28 04:45:36;;;;;;;93.28;19.40;;;;;;;18.96;51.53;93572.19;4984594;28;20120;-91
2023/06/28 04:48:03;;;;;;;22.33;10.50;;;;;;;18.93;51.72;93573.22;5000057;28;20046;-90
2023/06/28 04:50:29;;;;;;;21.77;7.80;;;;;;;18.85;52.06;93572.25;4976604;28;20065;-91
2023/06/28 04:52:54;;;;;;;17.52;6.82;;;;;;;18.75;52.24;93571.13;4980569;28;20045;-89
2023/06/28 04:55:19;;;;;;;35.08;15.43;;;;;;;18.79;51.89;93574.31;4996309;28;20116;-90
2023/06/28 04:57:45;;;;;;;24.45;11.75;;;;;;;18.77;52.16;93577.56;5008763;28;20041;-89
2023/06/28 05:00:11;;;;;;;23.13;10.00;;;;;;;18.84;51.84;93582.47;4977539;28;20061;-90
2023/06/28 05:02:37;;;;;;;37.58;17.13;;;;;;;18.86;51.66;93581.97;4990601;28;20072;-90
2023/06/28 05:05:02;;;;;;;51.08;21.40;;;;;;;18.99;51.31;93590.34;5005304;28;20034;-89
2023/06/28 05:07:28;;;;;;;39.78;18.15;;;;;;;18.90;51.43;93587.91;4988275;28;20038;-90
2023/06/28 05:09:54;;;;;;;44.38;16.20;;;;;;;18.90;51.31;93570.75;4990961;28;20046;-90
2023/06/28 05:12:19;;;;;;;38.60;17.48;;;;;;;18.92;51.23;93579.94;4988036;28;20038;-91
2023/06/28 05:14:45;;;;;;;31.08;15.30;;;;;;;18.92;51.35;93576.47;4965783;28;20104;-90
2023/06/28 05:17:11;;;;;;;30.00;16.58;;;;;;;18.84;51.45;93574.25;4987257;28;20030;-90
2023/06/28 05:19:36;;;;;;;32.63;14.25;;;;;;;18.86;51.21;93570.28;4978350;28;20050;-90
2023/06/28 05:22:02;;;;;;;31.63;14.55;;;;;;;18.77;51.33;93576.81;4978723;28;20034;-88
2023/06/28 05:24:28;;;;;;;29.42;13.25;;;;;;;18.74;51.11;93575.09;4990864;28;20045;-90
2023/06/28 05:26:53;;;;;;;23.92;10.00;;;;;;;18.99;51.23;93573.16;4987526;28;20069;-88
2023/06/28 05:29:19;;;;;;;17.80;8.55;;;;;;;18.91;51.03;93572.22;4992122;28;20034;-88
2023/06/28 05:31:44;;;;;;;17.30;7.97;;;;;;;18.87;50.91;93577.97;5011391;28;20056;-90
2023/06/28 05:34:12;;;;;;;16.20;6.25;;;;;;;18.94;50.91;93571.22;4994347;28;20038;-89
2023/06/28 05:36:39;;;;;;;17.15;5.72;;;;;;;18.85;51.07;93577.75;4976475;28;20045;-90
2023/06/28 05:39:06;;;;;;;23.38;7.20;;;;;;;18.69;51.57;93584.09;4991061;28;20042;-90
2023/06/28 05:41:31;;;;;;;20.20;7.10;;;;;;;18.59;51.98;93575.47;4995418;28;20073;-90
2023/06/28 05:43:57;;;;;;;31.00;7.07;;;;;;;18.71;51.64;93576.84;4974587;28;20135;-89
2023/06/28 05:46:22;;;;;;;26.70;11.52;;;;;;;18.77;51.46;93580.31;4994834;28;20135;-90
2023/06/28 05:48:49;;;;;;;21.65;10.68;;;;;;;18.86;51.53;93573.00;4979388;28;20042;-90
2023/06/28 05:51:15;;;;;;;22.15;9.80;;;;;;;18.91;51.49;93570.22;4982489;28;20392;-90
2023/06/28 05:53:41;;;;;;;33.30;13.38;;;;;;;18.78;51.84;93578.31;4977230;28;20061;-90
2023/06/28 05:56:07;;;;;;;14.18;7.30;;;;;;;18.77;52.70;93572.09;4990494;28;20048;-90
2023/06/28 05:58:32;;;;;;;39.17;18.65;;;;;;;18.73;52.26;93579.09;5012027;28;20033;-89
2023/06/28 06:00:59;;;;;;;34.00;11.15;;;;;;;18.70;53.19;93567.16;4994362;28;20384;-90
2023/06/28 06:03:26;;;;;;;15.80;8.05;;;;;;;18.63;52.93;93564.97;4974866;28;20046;-92
2023/06/28 06:05:53;;;;;;;13.27;6.53;;;;;;;18.68;52.54;93566.19;4993011;28;20042;-87
2023/06/28 06:08:18;;;;;;;9.32;5.25;;;;;;;18.61;52.35;93566.75;4994503;28;20455;-89
2023/06/28 06:10:45;;;;;;;11.35;5.20;;;;;;;18.47;52.90;93574.00;4993541;28;20038;-90
2023/06/28 06:13:10;;;;;;;12.18;7.00;;;;;;;18.59;52.64;93563.72;4985264;28;20026;-85
2023/06/28 06:15:36;;;;;;;18.23;12.00;;;;;;;18.66;53.03;93569.41;4991367;28;20056;-88
2023/06/28 06:18:02;;;;;;;11.07;6.32;;;;;;;18.62;52.80;93570.97;4997776;28;20038;-88
2023/06/28 06:20:28;;;;;;;5.97;4.47;;;;;;;18.63;52.36;93581.38;4993132;28;20038;-88
2023/06/28 06:22:53;;;;;;;8.43;3.72;;;;;;;18.67;52.38;93568.16;4981764;28;20686;-89
2023/06/28 06:25:19;;;;;;;5.93;4.10;;;;;;;18.62;52.45;93577.16;5000344;28;20129;-91
2023/06/28 06:27:50;;;;;;;4.55;3.67;;;;;;;18.54;52.67;93576.22;4987726;28;20578;-90
2023/06/28 06:30:16;;;;;;;4.07;3.15;;;;;;;18.49;52.75;93583.19;4977958;28;20069;-92
2023/06/28 06:32:42;;;;;;;3.53;2.70;;;;;;;18.53;52.62;93585.66;4984248;28;20038;-89
2023/06/28 06:35:08;;;;;;;17.13;10.15;;;;;;;18.54;52.39;93576.22;5008203;28;20555;-91
2023/06/28 06:37:33;;;;;;;29.65;15.93;;;;;;;18.54;52.60;93569.97;5011883;28;20048;-91
2023/06/28 06:40:00;;;;;;;39.60;18.70;;;;;;;18.61;52.15;93578.44;4987403;28;20042;-90
2023/06/28 06:42:25;;;;;;;22.10;10.55;;;;;;;18.59;52.23;93574.69;4976340;28;20117;-91
2023/06/28 06:44:53;;;;;;;31.48;12.85;;;;;;;18.57;52.50;93569.72;4980678;28;20034;-90
2023/06/28 06:47:20;;;;;;;19.10;9.60;;;;;;;18.61;52.18;93569.47;4986529;28;20105;-92
2023/06/28 06:49:49;;;;;;;17.13;9.07;;;;;;;18.62;52.41;93565.50;4988736;28;20037;-89
2023/06/28 06:52:15;;;;;;;16.92;6.70;;;;;;;18.45;53.09;93563.56;4992825;28;20041;-90
2023/06/28 06:54:40;;;;;;;43.50;20.13;;;;;;;18.52;52.78;93569.75;4991020;28;20448;-89
2023/06/28 06:57:06;;;;;;;53.22;28.05;;;;;;;18.56;52.92;93570.97;4989263;28;20042;-88
2023/06/28 06:59:32;;;;;;;88.10;45.10;;;;;;;18.56;53.23;93578.44;4974118;28;20097;-90
2023/06/28 07:01:57;;;;;;;57.17;27.70;;;;;;;18.58;53.17;93575.94;4993515;28;20037;-89
2023/06/28 07:04:23;;;;;;;44.67;23.05;;;;;;;18.58;52.89;93571.22;4974183;28;20040;-88
2023/06/28 07:06:48;;;;;;;43.95;22.02;;;;;;;18.39;53.03;93573.81;4971868;28;20078;-90
2023/06/28 07:09:14;;;;;;;40.17;15.40;;;;;;;18.35;53.23;93564.38;4992976;28;20046;-88
2023/06/28 07:11:41;;;;;;;29.50;13.00;;;;;;;18.24;53.31;93567.91;4975647;28;20078;-90
2023/06/28 07:14:06;;;;;;;28.65;14.07;;;;;;;18.42;53.37;93572.78;4976245;28;20040;-89
2023/06/28 07:16:32;;;;;;;26.17;13.18;;;;;;;18.31;53.20;93572.09;4975649;28;20124;-89
2023/06/28 07:19:00;;;;;;;29.25;13.40;;;;;;;18.37;53.30;93581.03;4991630;28;20511;-89
2023/06/28 07:21:26;;;;;;;23.38;12.75;;;;;;;18.39;53.54;93584.03;4998184;28;20038;-89
2023/06/28 07:23:51;;;;;;;37.15;19.23;;;;;;;18.47;53.04;93571.25;5002224;28;20053;-89
2023/06/28 07:26:18;;;;;;;41.17;17.27;;;;;;;18.47;53.02;93571.25;5007481;28;20041;-90
2023/06/28 07:28:43;;;;;;;16.60;7.60;;;;;;;18.43;52.60;93568.03;4976409;28;20082;-90
2023/06/28 07:31:09;;;;;;;19.25;7.03;;;;;;;18.46;52.77;93570.50;4969999;28;20092;-91
2023/06/28 07:33:34;;;;;;;13.40;6.45;;;;;;;18.45;52.69;93563.56;4983125;28;20124;-90
2023/06/28 07:36:07;;;;;;;11.85;5.78;;;;;;;18.48;52.90;93572.75;4991157;28;20050;-91
2023/06/28 07:38:35;;;;;;;21.63;6.57;;;;;;;18.41;53.13;93571.28;4985397;28;20503;-91
2023/06/28 07:41:00;;;;;;;8.52;4.05;;;;;;;18.53;53.12;93574.72;4996808;28;20145;-91
2023/06/28 07:43:26;;;;;;;9.80;6.00;;;;;;;18.53;52.71;93571.22;4976760;28;20038;-91
2023/06/28 07:45:52;;;;;;;25.73;8.52;;;;;;;18.48;53.11;93578.97;4994026;28;20037;-89
2023/06/28 07:48:18;;;;;;;21.27;6.65;;;;;;;18.35;52.71;93578.06;5015384;28;20052;-88
2023/06/28 07:50:44;;;;;;;18.25;6.88;;;;;;;18.23;53.26;93579.34;4992580;28;20145;-89
2023/06/28 07:53:10;;;;;;;19.05;7.63;;;;;;;18.28;53.14;93576.59;4992707;28;20038;-89
2023/06/28 07:55:35;;;;;;;11.00;4.82;;;;;;;18.38;52.66;93590.75;5008080;28;20046;-90
2023/06/28 07:58:01;;;;;;;10.57;4.40;;;;;;;18.43;53.02;93579.75;4975848;28;20064;-90
2023/06/28 08:00:28;;;;;;;10.95;4.47;;;;;;;18.50;53.00;93568.25;4976667;28;20042;-89
2023/06/28 08:02:54;;;;;;;12.57;3.92;;;;;;;18.51;53.08;93569.00;4981527;28;20120;-91
2023/06/28 08:05:20;;;;;;;12.02;5.13;;;;;;;18.57;53.64;93571.72;4977596;28;20053;-89
2023/06/28 08:07:48;;;;;;;13.88;5.90;;;;;;;18.62;53.20;93573.72;4991416;28;20601;-89
2023/06/28 08:10:13;;;;;;;22.73;8.10;;;;;;;18.54;52.90;93572.72;4992377;28;20030;-89
2023/06/28 08:12:39;;;;;;;17.60;8.23;;;;;;;18.51;52.89;93560.78;4991551;28;20404;-89
2023/06/28 08:15:06;;;;;;;22.55;9.45;;;;;;;18.52;53.04;93578.69;4974908;28;20045;-90
2023/06/28 08:17:31;;;;;;;23.40;9.23;;;;;;;18.56;53.03;93572.97;4991920;28;20120;-89
2023/06/28 08:20:00;;;;;;;25.27;7.88;;;;;;;18.48;52.97;93580.97;4987757;28;20439;-88
2023/06/28 08:22:25;;;;;;;18.08;7.78;;;;;;;18.41;53.21;93584.97;4985916;28;20115;-88
2023/06/28 08:24:53;;;;;;;13.75;7.15;;;;;;;18.42;52.98;93578.25;5007713;28;20042;-90
2023/06/28 08:27:18;;;;;;;13.48;6.22;;;;;;;18.54;53.05;93573.47;4979243;28;20045;-89
2023/06/28 08:29:46;;;;;;;15.25;7.25;;;;;;;18.59;52.90;93582.91;4989057;28;20480;-88
2023/06/28 08:32:13;;;;;;;13.95;6.35;;;;;;;18.60;52.82;93568.72;4973377;28;20048;-90
2023/06/28 08:34:57;;;;;;;7.35;5.00;;;;;;;18.59;52.69;93564.50;4985640;28;20042;-89
2023/06/28 08:37:34;;;;;;;7.15;4.35;;;;;;;18.54;52.97;93570.72;4999613;28;20105;-91
2023/06/28 08:40:39;;;;;;;15.40;6.00;;;;;;;18.45;53.14;93562.81;5005606;28;20333;-91
2023/06/28 08:43:05;;;;;;;14.80;5.68;;;;;;;18.40;52.87;93564.31;4959466;28;20046;-89
2023/06/28 08:45:35;;;;;;;19.70;9.27;;;;;;;18.30;53.02;93565.88;4979330;28;20153;-88
2023/06/28 08:48:01;;;;;;;17.85;8.65;;;;;;;18.24;53.11;93556.97;4954611;28;20054;-88
2023/06/28 08:50:28;;;;;;;23.20;8.30;;;;;;;18.38;53.30;93557.91;4943532;28;21530;-90
2023/06/28 08:52:54;;;;;;;18.17;7.53;;;;;;;18.41;52.93;93570.53;4956894;28;20041;-89
2023/06/28 08:55:20;;;;;;;46.45;18.85;;;;;;;18.39;53.63;93568.34;4967626;28;20054;-89
2023/06/28 08:57:46;;;;;;;28.25;12.55;;;;;;;18.38;53.24;93564.13;4967394;28;20038;-90
2023/06/28 09:00:13;;;;;;;33.65;12.18;;;;;;;18.35;52.87;93564.38;4952752;28;20042;-91
2023/06/28 09:02:42;;;;;;;33.28;12.77;;;;;;;18.37;52.76;93567.34;4970079;28;20141;-91
2023/06/28 09:05:10;;;;;;;38.30;11.05;;;;;;;18.35;52.91;93562.38;4971576;28;20042;-91
2023/06/28 09:07:38;;;;;;;19.02;8.43;;;;;;;18.31;53.06;93563.91;4957173;28;20125;-89
2023/06/28 09:10:04;;;;;;;31.90;12.45;;;;;;;18.33;53.27;93570.34;4971847;28;20038;-92
2023/06/28 09:12:30;;;;;;;37.63;19.42;;;;;;;18.30;53.27;93560.41;4954152;28;20042;-89
2023/06/28 09:14:55;;;;;;;41.95;23.45;;;;;;;18.35;53.49;93561.66;4946196;28;20046;-90
2023/06/28 09:17:21;;;;;;;63.50;33.13;;;;;;;18.35;53.80;93558.91;4967767;28;21020;-90
2023/06/28 09:19:48;;;;;;;85.82;42.58;;;;;;;18.40;53.06;93561.59;5000299;28;20041;-90
2023/06/28 09:22:15;;;;;;;95.55;42.63;;;;;;;18.35;52.72;93565.13;4973845;28;20135;-90
2023/06/28 09:24:40;;;;;;;131.23;60.03;;;;;;;18.32;52.88;93559.91;4993279;28;20051;-87
2023/06/28 09:27:17;;;;;;;154.98;77.25;;;;;;;18.36;52.93;93558.41;5009710;28;20085;-91
2023/06/28 09:30:22;;;;;;;130.80;65.15;;;;;;;18.40;52.84;93563.59;5008829;28;20045;-90
2023/06/28 09:32:51;;;;;;;158.32;88.82;;;;;;;18.45;53.02;93569.03;4953227;28;20077;-89
2023/06/28 09:35:18;;;;;;;101.13;53.65;;;;;;;18.46;53.15;93564.31;4990108;28;20547;-88
2023/06/28 09:37:50;;;;;;;98.95;49.55;;;;;;;18.42;53.27;93553.63;4992774;28;20088;-90
2023/06/28 09:40:19;;;;;;;89.75;40.72;;;;;;;18.48;52.84;93556.31;4975378;28;20030;-88
2023/06/28 09:42:45;;;;;;;62.45;34.17;;;;;;;18.53;52.54;93563.03;4991926;28;20049;-91
2023/06/28 09:45:22;;;;;;;64.10;30.67;;;;;;;18.60;52.83;93559.78;5003375;28;20071;-91
2023/06/28 09:48:00;;;;;;;53.33;24.63;;;;;;;18.64;52.65;93558.22;4974545;28;20527;-89
2023/06/28 09:50:39;;;;;;;49.15;22.42;;;;;;;18.63;52.99;93556.75;4998033;28;20038;-90
2023/06/28 09:53:15;;;;;;;59.65;20.98;;;;;;;18.69;52.78;93551.97;4973457;28;20045;-90
2023/06/28 09:55:43;;;;;;;48.22;16.58;;;;;;;18.77;52.61;93555.66;4995397;28;20327;-91
2023/06/28 09:58:11;;;;;;;40.25;11.85;;;;;;;18.78;52.39;93550.94;4993945;28;20042;-91
2023/06/28 10:00:38;;;;;;;49.47;13.68;;;;;;;18.78;52.32;93559.88;5010863;28;20042;-90
2023/06/28 10:03:05;;;;;;;40.35;9.90;;;;;;;18.77;52.46;93552.19;4984110;28;20046;-92
2023/06/28 10:05:33;;;;;;;25.80;7.47;;;;;;;18.82;52.27;93551.41;4969450;28;20141;-90
2023/06/28 10:07:59;;;;;;;19.17;5.30;;;;;;;18.78;51.69;93559.16;4983590;28;20080;-92
2023/06/28 10:10:24;;;;;;;17.77;5.35;;;;;;;18.80;51.81;93553.91;4973341;28;20207;-91
2023/06/28 10:12:50;;;;;;;10.80;3.45;;;;;;;18.77;51.84;93550.19;4993322;28;20042;-90
2023/06/28 10:15:19;;;;;;;10.70;3.13;;;;;;;18.79;51.64;93546.94;4994077;28;20042;-90
2023/06/28 10:17:47;;;;;;;6.55;3.22;;;;;;;18.79;51.02;93541.47;4978151;28;20058;-90
2023/06/28 10:20:13;;;;;;;5.47;2.50;;;;;;;18.74;51.43;93537.50;4973668;28;20050;-91
2023/06/28 10:22:39;;;;;;;4.05;2.22;;;;;;;18.82;51.50;93541.19;4993524;28;20060;-91
2023/06/28 10:25:13;;;;;;;3.55;1.95;;;;;;;18.80;49.62;93538.22;4982043;28;20045;-90
2023/06/28 10:27:39;;;;;;;2.67;1.40;;;;;;;18.79;49.50;93535.97;4991147;28;20054;-91
2023/06/28 10:30:06;;;;;;;3.67;2.22;;;;;;;18.79;49.88;93550.41;4985037;28;20048;-92
2023/06/28 10:32:31;;;;;;;4.20;1.90;;;;;;;18.87;49.77;93536.91;4979649;28;20372;-92
2023/06/28 10:34:57;;;;;;;3.92;1.65;;;;;;;18.88;50.29;93526.69;4987682;28;20049;-92
2023/06/28 10:37:23;;;;;;;2.10;1.90;;;;;;;18.90;50.15;93537.88;4976536;28;20412;-92
2023/06/28 10:39:52;;;;;;;1.98;1.83;;;;;;;18.88;49.89;93530.16;4980498;28;20133;-92
2023/06/28 10:42:18;;;;;;;3.30;2.08;;;;;;;18.91;49.87;93529.16;4997143;28;20046;-90
2023/06/28 10:44:56;;;;;;;5.72;3.00;;;;;;;18.94;50.17;93532.88;4989009;28;20052;-91
2023/06/28 10:47:21;;;;;;;6.70;4.75;;;;;;;18.93;50.37;93529.38;4991589;28;20397;-91
2023/06/28 10:50:06;;;;;;;6.22;3.80;;;;;;;18.97;50.12;93526.38;4997349;28;20561;-92
2023/06/28 10:52:31;;;;;;;19.08;3.58;;;;;;;18.96;49.24;93516.66;5008200;28;20092;-91
2023/06/28 10:54:57;;;;;;;8.68;3.30;;;;;;;18.95;49.37;93526.88;4999130;28;20050;-92
2023/06/28 10:57:36;;;;;;;22.27;5.63;;;;;;;18.94;49.59;93522.66;4984543;28;20058;-91
2023/06/28 11:00:09;;;;;;;18.88;6.05;;;;;;;18.90;49.60;93522.19;4972035;28;20053;-90
2023/06/28 11:03:03;;;;;;;32.08;8.70;;;;;;;18.91;48.95;93536.63;4994803;28;20407;-91
2023/06/28 11:05:44;;;;;;;43.88;13.35;;;;;;;18.99;48.23;93523.84;4987694;28;20066;-90
2023/06/28 11:08:11;;;;;;;52.65;14.30;;;;;;;18.99;48.32;93515.63;4973684;28;20128;-90
2023/06/28 11:10:42;;;;;;;57.75;19.23;;;;;;;19.02;48.38;93528.31;4995807;28;20054;-90
2023/06/28 11:13:10;;;;;;;54.50;15.77;;;;;;;19.06;48.46;93521.28;4975105;28;20101;-91
2023/06/28 11:15:41;;;;;;;85.68;20.05;;;;;;;19.05;48.73;93519.78;4979371;28;20031;-90
2023/06/28 11:18:08;;;;;;;68.22;19.05;;;;;;;19.04;49.05;93525.81;4977108;28;20092;-89
2023/06/28 11:20:47;;;;;;;58.28;22.25;;;;;;;19.08;48.99;93518.78;4979108;28;20133;-91
2023/06/28 11:23:28;;;;;;;63.50;21.35;;;;;;;18.98;48.27;93517.63;4996159;28;20076;-90